Antelope Valley, Nevada Weather observations

Data are for 10 minute period ending at time listed.
 Day   Time   Solar   Ave.   Ave.  Ave.  Vector  Max.   Baro.   Total    
  of    of     Rad.   Air    Rel.  Wind   Wind   Wind  Press.  Precip.   
Year   Day            Temp.  Hum.  Speed  Dir.   Gust                    
2017   (PST)  Kw/m2    F      %     mph   deg.    mph    mb.     in.     
-------------------------------------------------------------------------
  20    3:30   0.00   25.0    90    2.6   243     4.2   835.8    0.00 
  20    3:40   0.00   25.4    89    1.9   201     3.1   835.5    0.00 
  20    3:50   0.00   25.9    88    2.9   230     4.1   835.3    0.00 
  20    4:00   0.00   26.5    86    4.3   243     6.4   835.2    0.00 
  20    4:10   0.00   27.1    86    5.6   261     7.8   835.0    0.00 
  20    4:20   0.00   27.5    85    6.1   263     8.0   834.8    0.00 
  20    4:30   0.00   27.8    83    6.7   266     9.7   834.5    0.00 
  20    4:40   0.00   27.6    83    6.8   256     9.3   834.4    0.00 
  20    4:50   0.00   27.8    83    6.4   250     9.6   834.3    0.00 
  20    5:00   0.00   28.1    82    8.1   250    10.8   834.1    0.00 
  20    5:10   0.00   28.4    82    8.7   249    11.7   833.9    0.00 
  20    5:20   0.00   28.1    83    6.6   244     9.3   833.8    0.00 
  20    5:30   0.00   28.9    80    7.1   221     9.3   833.6    0.00 
  20    5:40   0.00   30.0    77    6.0   182     9.2   833.5    0.00 
  20    5:50   0.00   29.5    79    4.5   120     6.2   833.3    0.00 
  20    6:00   0.00   28.7    82    4.0    34     5.8   833.1    0.00 
  20    6:10   0.00   28.0    85    6.1    13     8.6   832.7    0.00 
  20    6:20   0.00   28.0    83    5.6    10     8.6   832.4    0.00 
  20    6:30   0.00   27.9    82    5.2   345     7.2   832.3    0.00 
  20    6:40   0.00   27.8    83    5.8   345     8.8   832.1    0.00 
  20    6:50   0.00   26.9    86    4.8   312     6.9   832.2    0.00 
  20    7:00   0.00   26.5    86    0.8    46     2.7   832.0    0.00 
  20    7:10   0.00   26.0    85    0.5   150     2.6   831.5    0.00 
  20    7:20   0.01   27.5    82    3.9   166    13.7   831.4    0.00 
  20    7:30   0.02   29.6    73    3.0   204     6.9   831.2    0.00 
  20    7:40   0.03   29.6    72    4.0   229     8.0   831.2    0.00 
  20    7:50   0.04   29.6    77    6.7   208    12.9   831.2    0.00 
  20    8:00   0.03   31.8    72    8.4   189    13.1   831.2    0.00 
  20    8:10   0.04   32.3    70    7.6   198    11.6   831.1    0.00 
  20    8:20   0.04   29.7    76    6.8   238    10.2   831.1    0.00 
  20    8:30   0.04   29.1    80    4.8   248     6.8   831.2    0.00 
  20    8:40   0.05   29.8    81    3.4   244     5.8   831.2    0.00 
  20    8:50   0.06   31.2    79    6.0   219    14.5   831.3    0.00 
  20    9:00   0.07   33.5    72   10.9   200    17.3   831.2    0.00 
  20    9:10   0.08   33.4    74    9.5   205    13.2   831.1    0.00 
  20    9:20   0.09   33.0    77    5.5   198     8.3   830.9    0.00 
  20    9:30   0.09   33.2    78    5.4   217     9.1   830.7    0.00 
  20    9:40   0.07   32.5    82    6.0   248     7.8   830.5    0.00 
  20    9:50   0.06   32.2    82    6.9   253     8.8   830.5    0.00 
  20   10:00   0.06   31.9    82    8.2   268    11.0   830.4    0.00 
  20   10:10   0.06   31.3    86    9.8   276    12.3   830.4    0.00 
  20   10:20   0.06   31.0    89    7.5   281    11.1   830.3    0.00 
  20   10:30   0.06   31.2    90    5.1   261     8.0   830.3    0.00 
  20   10:40   0.08   31.2    91    6.9   258     9.2   830.4    0.00 
  20   10:50   0.07   31.0    92    5.6   248     8.3   830.3    0.00 
  20   11:00   0.07   30.8    93    4.5   251     6.3   830.1    0.00 
  20   11:10   0.07   30.9    94    2.8   279     4.1   829.6    0.00 
  20   11:20   0.11   31.0    94    2.6   308     3.6   829.2    0.00 
  20   11:30   0.12   31.3    94    2.4   324     3.9   828.8    0.00 
  20   11:40   0.14   31.1    94    3.1   356     4.6   828.3    0.00 
  20   11:50   0.20   31.5    94    2.8   321     4.5   828.0    0.00 
  20   12:00   0.23   31.9    93    3.9   321     4.7   827.7    0.00 
  20   12:10   0.21   32.2    93    4.5   295     6.0   827.5    0.00 
  20   12:20   0.19   32.5    93    2.7   296     5.6   827.3    0.00 
  20   12:30   0.15   32.6    93    3.7   250     6.1   827.2    0.00 
  20   12:40   0.12   32.0    92    6.3   233     8.2   827.1    0.00 
  20   12:50   0.11   32.0    93    5.1   233     8.0   827.1    0.00 
  20   13:00   0.10   32.1    92    3.8   221     4.7   827.1    0.00 
  20   13:10   0.11   32.2    93    3.4   223     5.3   827.0    0.00 
  20   13:20   0.14   32.7    93    3.0   248     4.2   826.8    0.00 
  20   13:30   0.17   33.7    94    1.5   266     2.9   826.7    0.00 
  20   13:40   0.21   34.0    92    2.9   279     4.6   826.5    0.01 
  20   13:50   0.22   33.8    92    3.7   278     5.4   826.4    0.00 
  20   14:00   0.18   33.7    91    3.1   279     4.1   826.4    0.00 
  20   14:10   0.15   33.7    92    1.6   268     3.3   826.3    0.00 
  20   14:20   0.14   34.5    92    0.2   271     1.5   826.2    0.00 
  20   14:30   0.16   34.6    91    0.1   264     1.5   826.2    0.00 
  20   14:40   0.15   34.4    90    0.9   187     2.0   826.1    0.00 
  20   14:50   0.11   33.6    89    1.2   198     1.7   826.1    0.00 
  20   15:00   0.09   33.4    90    1.1   180     2.1   826.1    0.00 
  20   15:10   0.11   33.9    91    0.0     0     0.0   826.1    0.00 
  20   15:20   0.10   34.8    90    0.0     0     0.0   826.1    0.00 
  20   15:30   0.07   33.8    89    0.8   256     2.6   826.1    0.00 
  20   15:40   0.06   32.7    91    1.8   269     2.6   826.1    0.00 
  20   15:50   0.04   32.4    92    1.6   268     2.1   826.1    0.00 
  20   16:00   0.03   32.2    92    2.1   259     3.1   826.1    0.00 
  20   16:10   0.03   32.1    93    1.7   269     2.9   826.1    0.00 
  20   16:20   0.03   32.2    93    0.2   269     0.9   826.1    0.00 
  20   16:30   0.02   32.3    93    0.0   269     0.5   826.2    0.00 
  20   16:40   0.02   31.8    93    1.1   176     2.4   826.2    0.00 
  20   16:50   0.02   31.3    93    3.0   168     3.4   826.2    0.00 
  20   17:00   0.01   30.9    94    2.9   158     3.2   826.1    0.00 
  20   17:10   0.00   30.7    94    3.1   180     3.7   826.2    0.00 
  20   17:20   0.00   30.6    94    3.7   209     4.7   826.3    0.00 
  20   17:30   0.00   30.6    94    3.1   207     4.4   826.3    0.00 
  20   17:40   0.00   30.4    95    2.4   192     3.1   826.4    0.00 
  20   17:50   0.00   30.8    95    2.6   156     3.9   826.5    0.00 
  20   18:00   0.00   30.8    95    2.7   181     3.4   826.6    0.00 
  20   18:10   0.00   29.9    95    2.0   194     2.7   826.8    0.00 
  20   18:20   0.00   29.3    95    3.0   164     4.7   826.9    0.00 
  20   18:30   0.00   29.3    95    3.9   131     4.7   826.9    0.00 
  20   18:40   0.00   28.7    95    3.5   149     4.5   827.0    0.00 
  20   18:50   0.00   28.5    95    2.8   176     3.9   827.2    0.00 
  20   19:00   0.00   27.7    95    3.3   200     3.9   827.2    0.00 
  20   19:10   0.00   27.0    95    3.2   183     3.7   827.2    0.00 
  20   19:20   0.00   25.5    95    2.9   212     3.7   827.4    0.00 
  20   19:30   0.00   23.4    95    4.1   203     4.7   827.5    0.00 
  20   19:40   0.00   21.8    94    3.0   207     4.5   827.5    0.00 
  20   19:50   0.00   22.9    95    3.1   240     3.9   827.6    0.00 
  20   20:00   0.00   22.5    94    4.5   236     5.7   827.7    0.00 
  20   20:10   0.00   22.8    95    4.3   225     5.7   827.8    0.00 
  20   20:20   0.00   23.3    95    5.3   215     6.2   827.8    0.00 
  20   20:30   0.00   23.7    94    4.7   219     5.9   827.7    0.00 
  20   20:40   0.00   21.8    93    4.6   207     5.8   828.0    0.00 
  20   20:50   0.00   21.9    95    4.9   240     5.7   828.1    0.00 
  20   21:00   0.00   21.6    94    3.5   199     4.9   828.1    0.00 
  20   21:10   0.00   18.9    92    3.8   192     5.0   828.2    0.00 
  20   21:20   0.00   18.5    93    4.0   184     4.8   828.3    0.00 
  20   21:30   0.00   20.9    95    4.0   223     5.3   828.4    0.00 
  20   21:40   0.00   22.7    95    3.6   204     4.7   828.4    0.00 
  20   21:50   0.00   25.3    96    4.7   162     5.8   828.2    0.00 
  20   22:00   0.00   25.0    93    4.2   197     5.6   828.4    0.00 
  20   22:10   0.00   24.5    94    2.5   206     4.2   828.6    0.00 
  20   22:20   0.00   22.8    93    2.5   147     3.7   828.7    0.00 
  20   22:30   0.00   22.7    94    1.1   146     2.1   828.8    0.00 
  20   22:40   0.00   23.9    95    3.4   212     7.7   829.0    0.00 
  20   22:50   0.00   26.8    95    6.3   223     7.7   829.0    0.00 
  20   23:00   0.00   27.4    93    5.6   230     6.9   829.1    0.00 
  20   23:10   0.00   27.4    93    4.6   230     5.6   829.0    0.00 
  20   23:20   0.00   26.9    93    3.9   168     4.9   829.0    0.00 
  20   23:30   0.00   26.6    93    4.7   151     5.5   828.9    0.00 
  20   23:40   0.00   26.0    93    3.1   128     5.0   829.0    0.00 
  20   23:50   0.00   26.3    93    3.2   145     4.5   829.1    0.00 
  21    0:00   0.00   27.0    92    3.4   194     4.1   829.2    0.00 
  21    0:10   0.00   26.5    91    3.1   234     4.1   829.3    0.00 
  21    0:20   0.00   24.8    90    4.4   245     5.3   829.4    0.00 
  21    0:30   0.00   23.6    91    4.2   238     5.3   829.4    0.00 
  21    0:40   0.00   22.5    90    3.1   169     4.0   829.5    0.00 
  21    0:50   0.00   22.9    92    1.7   161     3.4   829.7    0.00 
  21    1:00   0.00   22.9    91    1.0   216     2.6   829.8    0.00 
  21    1:10   0.00   22.8    91    1.5   166     3.0   829.9    0.00 
  21    1:20   0.00   22.3    91    0.2    12     1.0   830.1    0.00 
  21    1:30   0.00   21.5    91    2.2   144     3.5   830.2    0.00 
  21    1:40   0.00   23.0    92    2.2   150     3.2   830.4    0.00 
  21    1:50   0.00   22.9    91    1.3   213     2.7   830.6    0.00 
  21    2:00   0.00   21.2    91    0.9   264     1.4   830.8    0.00 
  21    2:10   0.00   20.6    92    0.7   213     1.8   830.9    0.00 
  21    2:20   0.00   20.0    92    0.4   295     2.3   831.1    0.00 
  21    2:30   0.00   19.3    92    0.1   289     0.7   831.2    0.00 
  21    2:40   0.00   19.8    93    1.0   228     3.2   831.3    0.00 
  21    2:50   0.00   16.6    91    4.0   159     5.4   831.5    0.00 
  21    3:00   0.00   15.3    92    4.9   154     6.1   831.6    0.00 
  21    3:10   0.00   18.2    95    4.5   164     5.7   831.7    0.00 
  21    3:20   0.00   19.2    93    3.9   172     4.8   831.8    0.00 

Return to Antelope Valley graphs page.


Western Regional Climate Center,wrcc@dri.edu